createdAt,value
2019-06-07T21:34:33.103Z,67.56
2019-06-07T21:37:03.792Z,68.55
2019-06-07T21:39:32.119Z,68.90
2019-06-07T21:42:00.340Z,69.34
2019-06-07T21:44:28.541Z,69.97
2019-06-07T21:46:56.756Z,70.33
2019-06-07T21:49:25.039Z,70.91
2019-06-07T21:51:53.312Z,71.12
2019-06-07T21:54:21.468Z,70.99
2019-06-07T21:56:49.745Z,71.27
2019-06-07T21:59:17.965Z,71.35
2019-06-07T22:01:46.210Z,71.39
2019-06-07T22:04:14.431Z,71.58
2019-06-07T22:06:42.642Z,71.62
2019-06-07T22:09:12.407Z,71.86
2019-06-07T22:11:40.712Z,71.61
2019-06-07T22:14:10.325Z,71.84
2019-06-07T22:16:38.741Z,71.97
2019-06-07T22:19:06.943Z,72.42
2019-06-07T22:21:35.159Z,72.57
2019-06-07T22:24:04.688Z,72.77
2019-06-07T22:26:33.021Z,73.04
2019-06-07T22:29:01.693Z,73.13
2019-06-07T22:31:31.130Z,73.35
2019-06-07T22:33:59.525Z,73.82
2019-06-07T22:36:27.731Z,73.99
2019-06-07T22:38:56.051Z,74.48
2019-06-07T22:41:24.258Z,74.69
2019-06-07T22:43:52.511Z,74.95
2019-06-07T22:46:33.796Z,75.28
2019-06-07T22:48:50.639Z,75.57
2019-06-07T22:51:18.903Z,75.94
2019-06-07T22:53:47.156Z,75.84
2019-06-07T22:56:22.995Z,75.89
2019-06-07T22:58:51.196Z,75.79
2019-06-07T23:01:20.251Z,76.10
2019-06-07T23:03:48.590Z,76.06
2019-06-07T23:06:16.848Z,76.17
2019-06-07T23:08:44.999Z,76.12
2019-06-07T23:11:13.377Z,76.29
2019-06-07T23:13:41.558Z,76.10
2019-06-07T23:16:09.811Z,76.04
2019-06-07T23:18:38.022Z,75.96
2019-06-07T23:21:06.284Z,75.78
2019-06-07T23:23:34.462Z,75.56
2019-06-07T23:26:02.751Z,75.45
2019-06-07T23:28:30.962Z,75.51
2019-06-07T23:30:59.187Z,75.50
2019-06-07T23:33:27.398Z,75.45
2019-06-07T23:35:55.604Z,75.41
2019-06-07T23:38:23.835Z,75.55
2019-06-07T23:40:52.041Z,75.91
2019-06-07T23:43:21.493Z,76.25
2019-06-07T23:45:49.752Z,76.36
2019-06-07T23:48:17.995Z,76.42
2019-06-07T23:50:46.203Z,76.51
2019-06-07T23:53:15.593Z,76.69
2019-06-07T23:55:43.832Z,76.81
2019-06-07T23:58:12.063Z,76.91
